Time;durP1;ratioP1;P1;durP2;ratioP2;P2;SDS_P1;SDS_P2;PMS_P1;PMS_P2;Temp;Humidity;BMP_temperature;BMP_pressure;BME280_temperature;BME280_humidity;BME280_pressure;Samples;Min_cycle;Max_cycle;Signal;HPM_P1;HPM_P2
2021/09/16 00:00:36;;;;;;;11.38;4.58;;;;;;;16.77;74.06;101014.13;1864629;76;21051;-63
2021/09/16 00:03:04;;;;;;;9.05;4.10;;;;;;;16.83;73.69;101012.92;1864671;77;21016;-62
2021/09/16 00:05:33;;;;;;;7.67;3.80;;;;;;;16.91;73.32;101015.98;1864516;77;21063;-63
2021/09/16 00:08:02;;;;;;;6.58;4.00;;;;;;;16.93;73.16;101016.75;1864491;76;21050;-63
2021/09/16 00:10:30;;;;;;;10.65;3.75;;;;;;;16.88;72.86;101013.50;1864559;77;21126;-63
2021/09/16 00:12:59;;;;;;;8.25;3.83;;;;;;;16.81;72.63;101017.45;1864571;77;21157;-62
2021/09/16 00:15:28;;;;;;;7.80;3.95;;;;;;;16.70;72.57;101021.23;1864691;75;21153;-66
2021/09/16 00:17:57;;;;;;;8.85;4.45;;;;;;;16.67;72.41;101026.25;1864479;77;21593;-66
2021/09/16 00:20:26;;;;;;;5.80;3.17;;;;;;;16.65;72.35;101025.97;1864461;76;21063;-67
2021/09/16 00:22:55;;;;;;;8.45;3.58;;;;;;;16.57;72.16;101024.63;1864540;77;21579;-66
2021/09/16 00:25:24;;;;;;;9.73;3.52;;;;;;;16.48;72.11;101029.64;1864661;76;21487;-66
2021/09/16 00:27:52;;;;;;;8.20;3.22;;;;;;;16.41;72.05;101026.47;1864777;76;21482;-66
2021/09/16 00:30:21;;;;;;;5.62;3.33;;;;;;;16.41;71.93;101018.50;1864732;77;21047;-67
2021/09/16 00:32:50;;;;;;;5.42;3.17;;;;;;;16.38;71.87;101014.23;1864449;77;21619;-67
2021/09/16 00:35:18;;;;;;;7.95;3.60;;;;;;;16.31;71.60;101008.05;1864624;76;21048;-66
2021/09/16 00:37:47;;;;;;;7.70;3.40;;;;;;;16.25;71.31;101015.03;1864619;77;21068;-66
2021/09/16 00:40:16;;;;;;;7.72;3.22;;;;;;;16.21;71.22;101013.91;1864539;77;21040;-67
2021/09/16 00:42:46;;;;;;;6.30;3.02;;;;;;;16.16;71.14;101018.62;1864517;76;21470;-67
2021/09/16 00:45:14;;;;;;;4.53;2.77;;;;;;;16.15;70.84;101020.03;1864496;76;21138;-67
2021/09/16 00:47:49;;;;;;;8.25;3.33;;;;;;;16.17;70.64;101020.31;1864420;77;21043;-66
2021/09/16 00:50:21;;;;;;;7.83;3.02;;;;;;;16.12;70.27;101014.44;1864576;77;21071;-68
2021/09/16 00:52:51;;;;;;;6.20;2.62;;;;;;;16.10;70.18;101012.34;1864518;77;21098;-67
2021/09/16 00:55:22;;;;;;;6.15;2.95;;;;;;;16.18;70.07;101010.09;1864637;76;21078;-67
2021/09/16 00:57:56;;;;;;;5.53;2.47;;;;;;;16.18;69.77;101010.09;1864484;76;21122;-67
2021/09/16 01:00:24;;;;;;;6.25;2.85;;;;;;;16.26;69.69;101004.80;1864510;77;21036;-67
2021/09/16 01:02:53;;;;;;;5.40;2.55;;;;;;;16.29;69.40;101008.13;1864707;77;21051;-67
2021/09/16 01:05:22;;;;;;;13.10;3.33;;;;;;;16.35;69.06;101006.91;1864534;76;21122;-66
2021/09/16 01:07:51;;;;;;;7.42;2.27;;;;;;;16.34;68.97;100994.56;1864501;77;21133;-67
2021/09/16 01:10:21;;;;;;;8.60;3.00;;;;;;;16.43;68.84;100993.17;1864498;76;21055;-67
2021/09/16 01:12:49;;;;;;;6.25;3.50;;;;;;;16.42;68.47;100985.67;1864489;77;21596;-67
2021/09/16 01:15:18;;;;;;;5.87;2.80;;;;;;;16.39;68.19;100985.85;1868577;74;21059;-67
2021/09/16 01:17:47;;;;;;;8.48;2.95;;;;;;;16.41;68.33;100986.61;1876526;76;21154;-66
2021/09/16 01:20:17;;;;;;;5.65;2.85;;;;;;;16.38;67.93;100986.81;1876666;76;21466;-66
2021/09/16 01:22:46;;;;;;;8.33;2.90;;;;;;;16.29;67.93;100982.05;1876813;75;21469;-66
2021/09/16 01:25:14;;;;;;;6.58;2.83;;;;;;;16.33;67.74;100984.89;1876546;76;21121;-66
2021/09/16 01:27:45;;;;;;;7.28;3.02;;;;;;;16.35;67.36;100989.64;1876730;76;21117;-66
2021/09/16 01:30:14;;;;;;;7.60;2.90;;;;;;;16.36;67.22;100994.03;1876732;76;21494;-66
2021/09/16 01:32:42;;;;;;;6.40;2.90;;;;;;;16.43;67.06;100994.50;1876713;76;21109;-66
2021/09/16 01:35:11;;;;;;;6.67;2.72;;;;;;;16.44;66.75;100995.74;1876655;76;21039;-67
2021/09/16 01:37:40;;;;;;;6.28;2.70;;;;;;;16.39;66.42;100993.82;1876544;76;21047;-66
2021/09/16 01:40:10;;;;;;;6.00;3.22;;;;;;;16.34;66.36;100998.55;1876697;76;21063;-66
2021/09/16 01:42:43;;;;;;;7.25;2.50;;;;;;;16.32;66.27;100996.45;1876725;76;21039;-67
2021/09/16 01:45:20;;;;;;;5.92;2.40;;;;;;;16.36;66.60;100998.02;1876909;76;21105;-66
2021/09/16 01:47:50;;;;;;;6.87;2.90;;;;;;;16.29;66.19;100993.52;1876641;76;21036;-67
2021/09/16 01:50:21;;;;;;;10.32;3.20;;;;;;;16.28;65.99;101002.91;1876535;76;21561;-66
2021/09/16 01:52:51;;;;;;;8.28;2.90;;;;;;;16.27;66.28;100997.19;1876593;76;21070;-67
2021/09/16 01:55:20;;;;;;;12.15;2.85;;;;;;;16.30;66.38;100997.02;1876781;76;21470;-67
2021/09/16 01:57:50;;;;;;;5.75;2.77;;;;;;;16.29;65.89;100996.66;1876589;76;21497;-67
2021/09/16 02:00:19;;;;;;;5.80;2.60;;;;;;;16.27;65.51;100994.53;1876763;76;21043;-67
2021/09/16 02:02:48;;;;;;;9.65;3.10;;;;;;;16.32;65.68;100990.69;1876606;76;21208;-67
2021/09/16 02:05:17;;;;;;;7.50;2.87;;;;;;;16.32;65.53;100987.16;1876665;76;21055;-66
2021/09/16 02:07:45;;;;;;;7.95;2.58;;;;;;;16.36;65.46;100991.37;1876618;76;21126;-66
2021/09/16 02:10:14;;;;;;;5.03;2.62;;;;;;;16.24;65.05;100994.73;1876636;76;21067;-67
2021/09/16 02:12:43;;;;;;;5.65;2.33;;;;;;;16.14;65.34;100992.63;1876648;76;21035;-66
2021/09/16 02:15:12;;;;;;;7.60;2.67;;;;;;;16.11;65.41;100998.10;1876847;76;21113;-66
2021/09/16 02:17:41;;;;;;;5.33;2.30;;;;;;;15.97;64.69;100996.27;1876682;75;21602;-66
2021/09/16 02:20:10;;;;;;;7.97;2.22;;;;;;;15.79;64.13;101001.30;1876529;76;21040;-66
2021/09/16 02:22:39;;;;;;;8.38;2.70;;;;;;;15.63;64.01;101003.91;1876587;76;21157;-66
2021/09/16 02:25:09;;;;;;;7.53;2.42;;;;;;;15.61;64.05;101000.02;1876637;76;21031;-67
2021/09/16 02:27:37;;;;;;;5.92;2.47;;;;;;;15.52;63.71;101004.51;1876710;76;21035;-67
2021/09/16 02:30:07;;;;;;;6.75;2.25;;;;;;;15.51;63.99;101001.48;1876603;76;21027;-66
2021/09/16 02:32:36;;;;;;;7.37;2.50;;;;;;;15.50;63.89;100998.91;1876624;75;21097;-66
2021/09/16 02:35:05;;;;;;;5.55;2.10;;;;;;;15.48;64.00;101000.80;1876611;76;21217;-67
2021/09/16 02:37:34;;;;;;;7.00;2.47;;;;;;;15.46;63.62;100998.22;1876707;76;21109;-66
2021/09/16 02:40:03;;;;;;;5.90;2.30;;;;;;;15.35;63.16;100996.64;1876556;76;21011;-68
2021/09/16 02:42:32;;;;;;;7.00;2.22;;;;;;;15.29;63.00;101004.91;1876654;76;21082;-66
2021/09/16 02:45:01;;;;;;;7.08;2.83;;;;;;;15.28;62.95;101005.87;1876645;76;21506;-65
2021/09/16 02:47:30;;;;;;;6.10;2.50;;;;;;;15.31;62.95;101012.31;1876541;76;21131;-66
2021/09/16 02:49:58;;;;;;;9.33;3.33;;;;;;;15.26;63.39;101011.25;1876596;76;21011;-66
2021/09/16 02:52:27;;;;;;;5.60;2.10;;;;;;;15.22;63.06;101016.34;1876594;76;21059;-67
2021/09/16 02:54:56;;;;;;;4.92;2.20;;;;;;;15.27;62.77;101015.63;1876468;76;21121;-67
2021/09/16 02:57:24;;;;;;;6.70;2.60;;;;;;;15.26;62.64;101020.54;1876573;76;21122;-67
2021/09/16 02:59:53;;;;;;;6.10;2.25;;;;;;;15.26;62.81;101017.89;1876744;76;21016;-65
2021/09/16 03:02:22;;;;;;;4.22;2.30;;;;;;;15.31;62.99;101021.59;1876553;76;21132;-66
2021/09/16 03:04:51;;;;;;;5.62;2.22;;;;;;;15.31;62.41;101023.80;1876583;75;21639;-66
2021/09/16 03:07:19;;;;;;;7.83;2.17;;;;;;;15.26;61.66;101025.84;1876450;76;21228;-66
2021/09/16 03:09:48;;;;;;;6.55;2.45;;;;;;;15.18;61.38;101028.91;1876691;75;21062;-66
2021/09/16 03:12:17;;;;;;;7.72;2.40;;;;;;;15.09;61.18;101036.48;1876906;76;21015;-67
2021/09/16 03:14:46;;;;;;;14.83;2.80;;;;;;;15.04;60.88;101037.59;1876776;76;21184;-67
2021/09/16 03:17:14;;;;;;;8.50;2.35;;;;;;;15.04;61.11;101031.44;1870623;75;21131;-67
2021/09/16 03:19:43;;;;;;;6.85;2.25;;;;;;;15.15;61.90;101029.55;1864523;77;21076;-69
2021/09/16 03:22:12;;;;;;;7.03;2.55;;;;;;;15.36;62.13;101029.72;1864480;77;21575;-73
2021/09/16 03:24:41;;;;;;;5.90;2.45;;;;;;;15.43;62.29;101033.73;1864634;77;21571;-70
2021/09/16 03:27:10;;;;;;;8.20;2.35;;;;;;;15.51;62.64;101034.66;1864554;77;21060;-65
2021/09/16 03:29:39;;;;;;;10.18;2.70;;;;;;;15.47;62.09;101029.59;1864581;77;21043;-65
2021/09/16 03:32:08;;;;;;;8.60;3.00;;;;;;;15.42;62.17;101031.19;1864608;76;21552;-64
2021/09/16 03:34:36;;;;;;;6.25;2.75;;;;;;;15.43;61.90;101036.86;1864626;77;21208;-63
2021/09/16 03:37:06;;;;;;;6.97;2.30;;;;;;;15.49;62.07;101040.49;1864674;77;21063;-63
2021/09/16 03:39:34;;;;;;;7.17;2.58;;;;;;;15.63;62.16;101047.23;1864575;76;21048;-63
2021/09/16 03:42:04;;;;;;;7.53;2.42;;;;;;;15.69;62.11;101039.39;1864744;76;21121;-63
2021/09/16 03:44:32;;;;;;;12.35;2.92;;;;;;;15.66;61.67;101038.27;1864643;77;21105;-62
2021/09/16 03:47:01;;;;;;;5.15;2.22;;;;;;;15.62;61.36;101034.04;1864543;77;21416;-64
2021/09/16 03:49:30;;;;;;;9.55;2.75;;;;;;;15.55;61.38;101041.50;1864543;77;21036;-63
2021/09/16 03:51:59;;;;;;;4.90;2.30;;;;;;;15.59;61.59;101055.47;1864526;77;21036;-63
2021/09/16 03:54:27;;;;;;;9.05;2.22;;;;;;;15.60;61.60;101055.38;1864560;77;21117;-63
2021/09/16 03:56:56;;;;;;;10.38;2.75;;;;;;;15.56;61.47;101055.62;1864569;77;21067;-62
2021/09/16 03:59:25;;;;;;;6.92;2.50;;;;;;;15.61;61.55;101054.91;1864443;77;21106;-63
2021/09/16 04:01:54;;;;;;;5.45;2.40;;;;;;;15.79;62.29;101047.76;1864544;77;21505;-62
2021/09/16 04:04:23;;;;;;;11.97;2.58;;;;;;;15.87;61.84;101044.67;1864571;77;21060;-63
2021/09/16 04:06:52;;;;;;;11.48;2.42;;;;;;;15.81;61.37;101044.06;1864758;76;21063;-63
2021/09/16 04:09:21;;;;;;;8.88;2.27;;;;;;;15.76;60.93;101049.25;1864556;77;21055;-63
2021/09/16 04:11:50;;;;;;;5.78;2.77;;;;;;;15.68;60.75;101049.64;1864613;77;21060;-64
2021/09/16 04:14:19;;;;;;;8.18;2.47;;;;;;;15.63;60.25;101054.34;1864469;77;21115;-63
2021/09/16 04:16:47;;;;;;;14.87;3.37;;;;;;;15.64;60.17;101063.56;1864571;74;21063;-63
2021/09/16 04:19:16;;;;;;;8.18;2.20;;;;;;;15.71;60.60;101068.04;1864628;76;21110;-63
2021/09/16 04:21:45;;;;;;;10.78;2.58;;;;;;;15.79;60.60;101053.91;1864496;77;21133;-64
2021/09/16 04:24:14;;;;;;;10.25;2.70;;;;;;;15.95;60.45;101055.70;1864448;76;21028;-63
2021/09/16 04:26:44;;;;;;;10.98;2.90;;;;;;;16.09;60.70;101063.74;1864438;77;21015;-63
2021/09/16 04:29:14;;;;;;;9.50;2.92;;;;;;;16.21;61.01;101067.04;1864490;76;21024;-63
2021/09/16 04:31:43;;;;;;;9.83;2.25;;;;;;;16.41;61.05;101066.34;1864561;77;21446;-63
2021/09/16 04:34:12;;;;;;;8.83;2.83;;;;;;;16.56;59.89;101068.12;1864547;77;21098;-63
2021/09/16 04:36:41;;;;;;;12.85;4.55;;;;;;;16.84;59.56;101070.95;1864584;77;21525;-63
2021/09/16 04:39:09;;;;;;;18.10;6.37;;;;;;;17.11;59.06;101064.44;1864458;76;21024;-63
2021/09/16 04:41:38;;;;;;;42.60;8.70;;;;;;;17.45;58.59;101069.86;1864519;77;21051;-63
2021/09/16 04:44:07;;;;;;;24.70;7.03;;;;;;;17.81;58.68;101068.95;1864500;77;21150;-63
2021/09/16 04:46:36;;;;;;;39.75;7.12;;;;;;;18.11;58.17;101065.67;1864570;77;21067;-63
2021/09/16 04:49:05;;;;;;;23.35;6.50;;;;;;;18.47;57.75;101062.84;1864516;76;21028;-63
2021/09/16 04:51:34;;;;;;;9.30;3.50;;;;;;;18.82;57.14;101069.45;1864389;76;21547;-63
2021/09/16 04:54:03;;;;;;;18.12;4.33;;;;;;;19.18;55.92;101066.50;1864556;77;21470;-64
2021/09/16 04:56:31;;;;;;;8.18;2.87;;;;;;;19.50;54.54;101066.91;1864539;77;21358;-63
2021/09/16 04:59:00;;;;;;;11.80;2.95;;;;;;;19.74;53.85;101064.32;1864506;77;21130;-63
2021/09/16 05:01:29;;;;;;;11.85;2.85;;;;;;;19.93;52.61;101062.48;1864646;76;21047;-63
2021/09/16 05:03:58;;;;;;;8.83;2.50;;;;;;;19.95;52.29;101062.38;1864477;77;21534;-63
2021/09/16 05:06:26;;;;;;;9.25;1.65;;;;;;;19.71;51.72;101056.48;1864477;77;21208;-63
2021/09/16 05:08:55;;;;;;;11.88;1.87;;;;;;;19.41;51.33;101051.55;1864548;77;21039;-63
2021/09/16 05:11:24;;;;;;;9.93;1.77;;;;;;;19.04;51.17;101054.14;1864508;76;21134;-63
2021/09/16 05:13:53;;;;;;;13.22;2.25;;;;;;;18.77;51.05;101061.70;1864644;77;21172;-63
2021/09/16 05:16:22;;;;;;;15.40;2.22;;;;;;;18.82;50.95;101067.63;1864503;77;21083;-63
2021/09/16 05:18:50;;;;;;;7.92;2.62;;;;;;;18.84;51.00;101059.03;1853938;75;21128;-63
2021/09/16 05:21:20;;;;;;;7.78;1.95;;;;;;;18.69;50.91;101065.39;1895450;76;21074;-63
2021/09/16 05:23:49;;;;;;;5.15;1.67;;;;;;;18.48;50.50;101065.02;1895530;74;21007;-63
2021/09/16 05:26:17;;;;;;;7.58;2.30;;;;;;;18.30;50.64;101069.79;1895467;76;21113;-63
2021/09/16 05:28:46;;;;;;;6.20;1.87;;;;;;;18.20;50.70;101070.00;1895436;76;21066;-63
2021/09/16 05:31:15;;;;;;;10.60;2.27;;;;;;;18.07;50.62;101069.95;1895283;76;21058;-64
2021/09/16 05:33:44;;;;;;;5.85;1.80;;;;;;;17.94;50.54;101068.56;1895501;74;21026;-63
2021/09/16 05:36:12;;;;;;;7.58;1.70;;;;;;;17.94;50.49;101075.22;1895449;75;21147;-63
2021/09/16 05:38:41;;;;;;;4.90;1.50;;;;;;;18.33;49.98;101072.23;1895490;75;21112;-63
2021/09/16 05:41:10;;;;;;;4.30;1.57;;;;;;;18.90;49.50;101071.09;1895452;75;21038;-63
2021/09/16 05:43:38;;;;;;;7.85;2.20;;;;;;;19.43;48.82;101074.50;1895492;75;21035;-64
2021/09/16 05:46:07;;;;;;;11.10;3.60;;;;;;;19.91;48.23;101073.77;1895623;76;21031;-63
2021/09/16 05:48:36;;;;;;;15.90;4.60;;;;;;;20.32;47.68;101072.52;1895453;76;21517;-63
2021/09/16 05:51:04;;;;;;;12.55;3.27;;;;;;;20.62;46.14;101064.55;1895446;74;21128;-64
2021/09/16 05:53:33;;;;;;;16.93;2.60;;;;;;;20.89;45.66;101067.39;1895422;76;21120;-63
2021/09/16 05:56:02;;;;;;;9.88;1.80;;;;;;;21.18;44.81;101074.00;1895448;74;21097;-63
2021/09/16 05:58:31;;;;;;;11.95;1.70;;;;;;;21.39;43.59;101078.63;1895375;74;21124;-63
2021/09/16 06:01:00;;;;;;;9.75;1.52;;;;;;;21.39;43.66;101086.66;1895469;76;21441;-63
2021/09/16 06:03:29;;;;;;;3.75;1.47;;;;;;;21.04;43.61;101084.93;1895460;76;21034;-63
2021/09/16 06:05:58;;;;;;;10.80;1.87;;;;;;;20.70;43.36;101084.86;1895638;76;21137;-63
2021/09/16 06:08:26;;;;;;;7.47;1.65;;;;;;;20.49;44.10;101091.80;1895447;76;21062;-63
2021/09/16 06:10:55;;;;;;;11.85;1.60;;;;;;;20.34;44.71;101093.80;1895323;76;21054;-63
2021/09/16 06:13:24;;;;;;;9.13;1.90;;;;;;;20.17;44.86;101090.56;1895413;76;21090;-63
2021/09/16 06:28:36;;;;;;;9.28;1.52;;;;;;;21.22;41.19;101092.02;1960201;72;28011;-61
2021/09/16 06:31:04;;;;;;;6.03;1.77;;;;;;;21.29;42.08;101099.09;1919491;75;21109;-62
2021/09/16 06:33:33;;;;;;;6.65;1.42;;;;;;;21.29;42.45;101101.77;1919424;75;21031;-62
2021/09/16 06:36:03;;;;;;;6.03;1.50;;;;;;;21.59;42.60;101106.55;1919493;74;21528;-61
2021/09/16 06:38:33;;;;;;;5.45;2.33;;;;;;;22.13;42.50;101107.55;1919519;73;21019;-62
2021/09/16 06:41:02;;;;;;;30.40;11.03;;;;;;;22.64;41.96;101104.23;1919615;75;21024;-61
2021/09/16 06:43:31;;;;;;;55.98;19.73;;;;;;;22.66;41.02;101108.98;1919478;75;21003;-61
2021/09/16 06:46:00;;;;;;;28.62;12.05;;;;;;;22.43;41.56;101103.34;1919637;74;21071;-61
2021/09/16 06:48:29;;;;;;;22.25;8.70;;;;;;;22.27;42.02;101111.83;1919523;75;21007;-62
2021/09/16 06:50:58;;;;;;;10.60;3.08;;;;;;;22.06;42.52;101107.23;1919504;75;21450;-61
2021/09/16 06:53:27;;;;;;;11.60;2.33;;;;;;;21.96;42.70;101108.44;1919513;75;21462;-61
2021/09/16 06:55:56;;;;;;;5.15;1.80;;;;;;;21.85;42.95;101108.47;1919473;75;21078;-61
2021/09/16 06:58:25;;;;;;;9.53;1.82;;;;;;;21.77;42.80;101109.59;1919487;75;21051;-61
2021/09/16 07:00:54;;;;;;;5.62;1.60;;;;;;;21.79;43.51;101100.93;1919446;75;21168;-61
2021/09/16 07:03:23;;;;;;;7.90;1.52;;;;;;;21.93;43.25;101101.14;1919485;74;21067;-61
2021/09/16 07:05:52;;;;;;;5.53;1.22;;;;;;;22.47;42.47;101098.11;1919476;75;21130;-61
2021/09/16 07:08:21;;;;;;;6.87;1.90;;;;;;;23.31;41.27;101092.26;1919640;75;21120;-61
2021/09/16 07:10:50;;;;;;;5.85;1.40;;;;;;;23.87;41.24;101096.30;1919452;75;21101;-62
2021/09/16 07:13:19;;;;;;;7.00;2.08;;;;;;;24.18;40.34;101094.87;1919341;75;21007;-62
2021/09/16 07:15:48;;;;;;;7.15;1.95;;;;;;;24.15;40.01;101095.14;1919413;75;21098;-61
2021/09/16 07:18:17;;;;;;;6.40;1.62;;;;;;;24.20;39.66;101090.20;1919487;74;21473;-61
2021/09/16 07:20:47;;;;;;;4.53;1.90;;;;;;;24.16;39.34;101086.09;1919492;73;21075;-61
2021/09/16 07:23:16;;;;;;;5.03;1.82;;;;;;;24.03;39.70;101084.15;1919600;75;21004;-61
2021/09/16 07:25:45;;;;;;;4.92;1.70;;;;;;;23.94;39.25;101079.12;1919372;75;21438;-62
2021/09/16 07:28:14;;;;;;;3.15;1.27;;;;;;;23.82;39.29;101074.84;1928413;74;21454;-61
2021/09/16 07:30:43;;;;;;;5.67;1.40;;;;;;;23.68;39.08;101078.25;1895140;76;21010;-62
2021/09/16 07:33:12;;;;;;;4.28;1.82;;;;;;;23.58;39.25;101085.92;1891460;76;21092;-62
2021/09/16 07:35:41;;;;;;;11.30;1.90;;;;;;;23.60;38.91;101082.61;1857947;77;21066;-61
2021/09/16 07:38:10;;;;;;;4.58;1.47;;;;;;;23.57;38.77;101081.52;1872579;76;21137;-62
2021/09/16 07:40:39;;;;;;;11.60;1.70;;;;;;;23.60;38.41;101078.57;1872798;77;21145;-61
2021/09/16 07:43:09;;;;;;;4.78;1.37;;;;;;;23.81;38.27;101082.55;1872757;77;21067;-62
2021/09/16 07:45:38;;;;;;;4.60;2.10;;;;;;;24.46;37.46;101070.81;1872826;77;21063;-61
2021/09/16 07:48:07;;;;;;;5.75;1.90;;;;;;;24.79;36.82;101065.99;1872773;77;21165;-61
2021/09/16 07:50:36;;;;;;;10.28;1.50;;;;;;;25.30;36.30;101064.71;1872950;76;21125;-62
2021/09/16 07:53:07;;;;;;;9.48;2.05;;;;;;;26.04;35.54;101068.30;1872623;77;21209;-62
2021/09/16 07:55:35;;;;;;;7.83;2.12;;;;;;;26.64;35.09;101072.27;1872693;77;21024;-62
2021/09/16 07:58:05;;;;;;;13.18;2.75;;;;;;;27.42;34.41;101061.95;1872638;77;21043;-62
2021/09/16 08:00:35;;;;;;;5.28;1.62;;;;;;;27.82;34.57;101069.88;1872807;77;21076;-61
2021/09/16 08:03:03;;;;;;;5.05;1.98;;;;;;;28.39;34.08;101061.03;1872682;77;21048;-61
2021/09/16 08:05:32;;;;;;;10.55;2.25;;;;;;;28.69;33.97;101063.58;1872633;77;21015;-61
2021/09/16 08:08:02;;;;;;;8.40;2.60;;;;;;;28.94;33.56;101057.63;1872672;77;21157;-61
2021/09/16 08:10:30;;;;;;;10.18;3.98;;;;;;;29.11;33.03;101058.94;1872734;77;21047;-62
2021/09/16 08:12:59;;;;;;;7.85;1.87;;;;;;;29.32;32.49;101061.93;1872728;76;21080;-61
2021/09/16 08:15:29;;;;;;;7.92;2.40;;;;;;;29.44;30.94;101049.69;1872719;76;21083;-61
2021/09/16 08:17:59;;;;;;;14.50;5.03;;;;;;;29.60;30.37;101058.27;1872578;76;21587;-61
2021/09/16 08:20:28;;;;;;;20.30;5.85;;;;;;;29.93;30.48;101054.02;1872802;77;21153;-61
2021/09/16 08:22:57;;;;;;;7.55;2.37;;;;;;;30.37;30.55;101052.03;1872834;77;21178;-61
2021/09/16 08:25:25;;;;;;;8.20;2.87;;;;;;;30.52;29.78;101055.31;1872817;76;21052;-61
2021/09/16 08:27:54;;;;;;;12.07;2.83;;;;;;;30.11;29.71;101055.62;1870282;77;21157;-61
2021/09/16 08:30:23;;;;;;;8.60;2.65;;;;;;;30.02;29.74;101054.30;1856905;77;21544;-61
2021/09/16 08:32:53;;;;;;;7.03;2.45;;;;;;;30.10;29.56;101052.55;1856997;77;21036;-62
2021/09/16 08:35:22;;;;;;;8.35;2.70;;;;;;;30.00;29.45;101049.56;1857025;77;21529;-61
2021/09/16 08:37:51;;;;;;;7.60;3.55;;;;;;;29.71;30.33;101043.95;1857004;77;21556;-61
2021/09/16 08:40:22;;;;;;;7.87;2.83;;;;;;;29.60;30.02;101045.20;1856977;77;21060;-61
2021/09/16 08:42:51;;;;;;;6.70;2.85;;;;;;;29.95;29.68;101050.61;1856895;77;21150;-63
2021/09/16 08:45:21;;;;;;;9.05;2.27;;;;;;;30.24;29.29;101042.27;1857026;77;21568;-62
2021/09/16 08:47:53;;;;;;;10.58;2.65;;;;;;;30.73;28.87;101041.88;1856999;77;21048;-63
2021/09/16 08:50:26;;;;;;;14.23;3.20;;;;;;;31.14;28.37;101040.09;1857280;77;21052;-62
2021/09/16 08:52:55;;;;;;;;;;;;;;;31.54;28.20;101046.09;1859881;77;21048;-63
2021/09/16 08:55:25;;;;;;;7.85;3.08;;;;;;;31.33;28.92;101042.73;1857149;77;20134;-63
2021/09/16 08:57:57;;;;;;;8.33;3.05;;;;;;;30.68;29.24;101053.80;1857022;77;21118;-63
2021/09/16 09:00:27;;;;;;;11.57;3.00;;;;;;;30.17;28.84;101058.44;1857080;77;21068;-63
2021/09/16 09:02:57;;;;;;;7.83;2.45;;;;;;;29.83;28.49;101053.42;1857005;77;21052;-63
2021/09/16 09:05:31;;;;;;;10.53;2.33;;;;;;;29.48;29.12;101052.89;1857025;77;21151;-63
2021/09/16 09:07:59;;;;;;;10.32;2.45;;;;;;;29.20;29.37;101061.48;1856495;77;21130;-63
2021/09/16 09:10:40;;;;;;;6.45;2.45;;;;;;;28.71;29.41;101064.25;1856986;77;21157;-63
2021/09/16 09:13:24;;;;;;;14.25;4.78;;;;;;;27.88;29.35;101070.56;1856989;77;21088;-63
2021/09/16 09:16:07;;;;;;;7.20;2.80;;;;;;;26.94;30.17;101065.03;1856241;77;21510;-63
2021/09/16 09:18:48;;;;;;;8.80;2.10;;;;;;;26.33;30.83;101067.24;1856948;77;21044;-62
2021/09/16 09:21:19;;;;;;;9.73;4.00;;;;;;;26.04;31.41;101060.20;1856696;77;21150;-63
2021/09/16 09:23:54;;;;;;;10.45;3.30;;;;;;;26.00;31.63;101058.31;1857005;77;21063;-64
2021/09/16 09:26:26;;;;;;;11.63;2.75;;;;;;;26.66;32.14;101043.25;1856976;77;21036;-63
2021/09/16 09:29:12;;;;;;;13.30;2.20;;;;;;;27.65;31.04;101038.72;1856762;77;21127;-63
2021/09/16 09:31:44;;;;;;;8.03;2.17;;;;;;;28.17;30.59;101036.82;1857006;77;21058;-63
2021/09/16 09:34:36;;;;;;;10.82;2.52;;;;;;;28.77;29.59;101039.17;1856281;77;21075;-63
2021/09/16 09:37:17;;;;;;;5.55;1.72;;;;;;;29.23;28.97;101044.00;1830854;77;21122;-63
2021/09/16 09:39:49;;;;;;;11.18;2.98;;;;;;;29.41;28.50;101045.12;1856961;77;21130;-63
2021/09/16 09:42:21;;;;;;;14.28;6.12;;;;;;;29.63;27.97;101048.92;1855615;77;21526;-62
2021/09/16 09:44:55;;;;;;;7.12;3.75;;;;;;;30.10;27.17;101046.63;1857122;77;21040;-62
2021/09/16 09:47:42;;;;;;;8.70;3.52;;;;;;;30.06;26.65;101045.80;1856751;77;21451;-64
2021/09/16 09:50:22;;;;;;;15.18;5.37;;;;;;;29.92;26.61;101041.48;1856996;77;21040;-62
2021/09/16 09:52:53;;;;;;;14.05;6.40;;;;;;;30.31;26.78;101039.16;1856952;77;21076;-62
2021/09/16 09:55:25;;;;;;;9.80;4.37;;;;;;;30.61;26.81;101036.55;1857080;77;21048;-62
2021/09/16 09:58:04;;;;;;;6.77;2.20;;;;;;;30.61;26.32;101047.42;1857120;77;21193;-61
2021/09/16 10:00:34;;;;;;;8.50;2.77;;;;;;;30.63;26.47;101051.31;1857041;77;21052;-60
2021/09/16 10:03:03;;;;;;;11.10;2.90;;;;;;;30.68;26.51;101044.81;1857073;77;21052;-61
2021/09/16 10:05:38;;;;;;;6.83;2.90;;;;;;;30.85;27.21;101038.17;1857007;77;21036;-61
2021/09/16 10:08:13;;;;;;;7.70;2.37;;;;;;;30.84;25.96;101040.58;1856960;77;21068;-61
2021/09/16 10:10:45;;;;;;;10.45;2.77;;;;;;;30.40;25.29;101046.25;1856915;77;21016;-61
2021/09/16 10:13:23;;;;;;;8.63;1.80;;;;;;;30.25;25.46;101043.97;1857213;77;21122;-61
2021/09/16 10:15:45;;;;;;;8.25;1.80;;;;;;;30.42;25.74;101044.71;1854239;77;21161;-61
2021/09/16 10:18:14;;;;;;;3.35;1.80;;;;;;;30.39;25.16;101041.83;1857025;77;21100;-60
2021/09/16 10:20:45;;;;;;;8.50;1.87;;;;;;;30.36;25.46;101046.29;1857038;77;21020;-61
2021/09/16 10:23:16;;;;;;;8.83;2.15;;;;;;;30.02;24.77;101052.94;1857159;77;21107;-61
2021/09/16 10:25:48;;;;;;;3.98;1.47;;;;;;;29.99;25.00;101047.89;1856951;77;21040;-61
2021/09/16 10:28:17;;;;;;;;;;;;;;;29.77;25.14;101043.27;1859384;77;21108;-61
2021/09/16 10:30:47;;;;;;;;;;;;;;;29.62;25.38;101038.59;1859739;77;20125;-61
2021/09/16 10:33:16;;;;;;;;;;;;;;;29.59;26.17;101048.43;1858943;77;20154;-61
2021/09/16 10:35:49;;;;;;;;;;;;;;;29.51;26.40;101038.13;1859808;77;20152;-61
2021/09/16 10:38:21;;;;;;;;;;;;;;;29.62;26.37;101035.00;1857485;77;20152;-61
2021/09/16 10:40:50;;;;;;;;;;;;;;;29.56;26.38;101041.98;1859357;77;20122;-62
2021/09/16 10:43:22;;;;;;;;;;;;;;;29.57;25.80;101032.84;1859846;77;20165;-63
2021/09/16 10:45:51;;;;;;;;;;;;;;;29.61;26.55;101035.53;1859661;77;20122;-63
2021/09/16 10:48:21;;;;;;;;;;;;;;;29.83;26.51;101033.91;1859721;77;20146;-62
2021/09/16 10:50:50;;;;;;;;;;;;;;;29.96;26.61;101031.95;1859706;77;20189;-62
2021/09/16 10:53:36;;;;;;;;;;;;;;;30.08;26.83;101036.96;1859702;77;20149;-62
2021/09/16 10:56:06;;;;;;;;;;;;;;;30.21;26.99;101039.42;1859806;76;20153;-62
2021/09/16 10:58:34;;;;;;;;;;;;;;;30.32;26.82;101037.28;1859632;77;20177;-62
2021/09/16 11:01:02;;;;;;;;;;;;;;;30.16;26.39;101028.77;1859695;77;20152;-62
2021/09/16 11:03:31;;;;;;;;;;;;;;;29.98;26.49;101042.12;1859746;77;20137;-62
2021/09/16 11:06:00;;;;;;;;;;;;;;;29.86;26.76;101034.05;1856792;77;20152;-62
2021/09/16 11:08:46;;;;;;;;;;;;;;;29.63;27.17;101032.12;1859852;77;20161;-62
2021/09/16 11:11:14;;;;;;;;;;;;;;;29.10;26.34;101030.13;1872886;77;20166;-62
2021/09/16 11:13:50;;;;;;;;;;;;;;;28.77;27.19;101022.91;1859824;77;20117;-62
2021/09/16 11:16:13;;;;;;;;;;;;;;;28.78;27.66;101012.94;1872915;75;20107;-62
2021/09/16 11:18:43;;;;;;;;;;;;;;;28.83;27.92;101011.92;1859821;77;20114;-62
2021/09/16 11:21:11;;;;;;;;;;;;;;;28.64;28.20;101007.70;1859757;77;20110;-63
2021/09/16 11:23:41;;;;;;;;;;;;;;;28.39;27.80;101015.83;1859892;77;20383;-62
2021/09/16 11:26:10;;;;;;;;;;;;;;;28.13;27.97;101015.14;1859850;77;20114;-62
2021/09/16 11:28:39;;;;;;;;;;;;;;;27.87;27.73;101012.06;1857263;77;20189;-62
2021/09/16 11:31:06;;;;;;;;;;;;;;;27.76;28.34;101002.41;1859762;77;20121;-62
2021/09/16 11:33:35;;;;;;;;;;;;;;;27.68;28.64;101011.31;1859788;77;20122;-63
2021/09/16 11:36:07;;;;;;;;;;;;;;;27.57;28.60;101012.98;1859754;77;20118;-62
2021/09/16 11:38:35;;;;;;;;;;;;;;;27.48;29.00;101009.42;1859778;77;20126;-62
2021/09/16 11:41:05;;;;;;;;;;;;;;;27.40;28.64;101003.14;1859813;77;20122;-62
2021/09/16 11:43:33;;;;;;;;;;;;;;;27.25;28.58;101000.18;1872865;77;20115;-62
2021/09/16 11:46:02;;;;;;;;;;;;;;;27.14;28.96;101004.02;1859817;77;20146;-62
2021/09/16 11:48:30;;;;;;;;;;;;;;;27.08;29.35;101003.32;1859726;77;20114;-62
2021/09/16 11:51:00;;;;;;;;;;;;;;;26.98;29.35;100995.82;1872774;77;20166;-62
2021/09/16 11:53:29;;;;;;;;;;;;;;;26.85;30.00;101003.85;1859804;77;20157;-62
2021/09/16 11:56:01;;;;;;;;;;;;;;;26.80;30.36;100999.94;1859888;77;20347;-62